createdAt,value
2018-03-28T00:00:03.302Z,99.99
2018-03-28T00:01:03.255Z,99.99
2018-03-28T00:02:03.213Z,99.99
2018-03-28T00:03:03.163Z,99.99
2018-03-28T00:04:03.118Z,99.99
2018-03-28T00:05:03.072Z,99.99
2018-03-28T00:06:03.036Z,99.99
2018-03-28T00:07:02.980Z,99.99
2018-03-28T00:08:02.937Z,99.99
2018-03-28T00:09:02.894Z,99.99
2018-03-28T00:10:02.847Z,99.99
2018-03-28T00:11:02.799Z,99.99
2018-03-28T00:12:02.757Z,99.99
2018-03-28T00:13:02.710Z,99.99
2018-03-28T00:14:02.663Z,99.99
2018-03-28T00:15:02.617Z,99.99
2018-03-28T00:16:02.571Z,99.99
2018-03-28T00:17:02.525Z,99.99
2018-03-28T00:18:02.481Z,99.99
2018-03-28T00:19:02.435Z,99.99
2018-03-28T00:20:02.391Z,99.99
2018-03-28T00:21:02.345Z,99.99
2018-03-28T00:22:02.298Z,99.99
2018-03-28T00:23:02.251Z,99.99
2018-03-28T00:24:02.209Z,99.99
2018-03-28T00:25:02.163Z,99.99
2018-03-28T00:26:02.118Z,99.99
2018-03-28T00:27:02.070Z,99.99
2018-03-28T00:28:02.029Z,99.99
2018-03-28T00:29:01.980Z,99.99
2018-03-28T00:30:01.944Z,99.99
2018-03-28T00:31:01.890Z,99.99
2018-03-28T00:32:01.845Z,99.99
2018-03-28T00:33:01.798Z,99.99
2018-03-28T00:34:01.754Z,99.99
2018-03-28T00:35:01.712Z,99.99
2018-03-28T00:36:01.663Z,99.99
2018-03-28T00:37:01.618Z,99.99
2018-03-28T00:38:01.570Z,99.99
2018-03-28T00:39:01.527Z,99.99
2018-03-28T00:40:01.482Z,99.99
2018-03-28T00:41:01.438Z,99.99
2018-03-28T00:42:01.390Z,99.99
2018-03-28T00:43:01.347Z,99.99
2018-03-28T00:44:01.299Z,99.99
2018-03-28T00:45:01.256Z,99.99
2018-03-28T00:46:01.208Z,99.99
2018-03-28T00:47:01.167Z,99.99
2018-03-28T00:48:01.120Z,99.99
2018-03-28T00:49:01.072Z,99.99
2018-03-28T00:50:01.025Z,99.99
2018-03-28T00:51:00.984Z,99.99
2018-03-28T00:52:00.936Z,99.99
2018-03-28T00:53:00.889Z,99.99
2018-03-28T00:54:00.848Z,99.99
2018-03-28T00:55:00.799Z,99.99
2018-03-28T00:56:00.755Z,99.99
2018-03-28T00:57:00.715Z,99.99
2018-03-28T00:58:00.665Z,99.99
2018-03-28T00:59:00.617Z,99.99
2018-03-28T01:00:00.572Z,99.99
2018-03-28T01:01:00.528Z,99.99
2018-03-28T01:02:00.484Z,99.99
2018-03-28T01:03:00.438Z,99.99
2018-03-28T01:04:00.391Z,99.99
2018-03-28T01:05:00.348Z,99.99
2018-03-28T01:06:00.303Z,99.99
2018-03-28T01:07:00.259Z,99.99
2018-03-28T01:08:00.209Z,99.99
2018-03-28T01:09:00.163Z,99.99
2018-03-28T01:10:00.122Z,99.99
2018-03-28T01:11:00.074Z,99.99
2018-03-28T01:12:00.030Z,99.99
2018-03-28T01:12:59.984Z,99.99
2018-03-28T01:13:59.939Z,99.99
2018-03-28T01:14:59.892Z,99.99
2018-03-28T01:15:59.848Z,99.99
2018-03-28T01:16:59.802Z,99.99
2018-03-28T01:17:59.758Z,99.99
2018-03-28T01:18:59.711Z,99.99
2018-03-28T01:19:59.667Z,99.99
2018-03-28T01:20:59.623Z,99.99
2018-03-28T01:21:59.575Z,99.99
2018-03-28T01:22:59.529Z,99.99
2018-03-28T01:23:59.483Z,99.99
2018-03-28T01:24:59.438Z,99.99
2018-03-28T01:25:59.396Z,99.99
2018-03-28T01:26:59.349Z,99.99
2018-03-28T01:27:59.306Z,99.99
2018-03-28T01:28:59.263Z,99.99
2018-03-28T01:29:59.213Z,99.99
2018-03-28T01:30:59.166Z,99.99
2018-03-28T01:31:59.122Z,99.99
2018-03-28T01:32:59.082Z,99.99
2018-03-28T01:33:59.031Z,99.99
2018-03-28T01:34:58.987Z,99.99
2018-03-28T01:35:58.947Z,99.99
2018-03-28T01:36:58.897Z,99.99
2018-03-28T01:37:58.850Z,99.99
2018-03-28T01:38:58.804Z,99.99
2018-03-28T01:39:58.766Z,99.99
2018-03-28T01:40:58.718Z,99.99
2018-03-28T01:41:58.669Z,99.99
2018-03-28T01:42:58.625Z,99.99
2018-03-28T01:43:58.579Z,99.99
2018-03-28T01:44:58.533Z,99.99
2018-03-28T01:45:58.514Z,99.99
2018-03-28T01:46:58.447Z,99.99
2018-03-28T01:47:58.405Z,99.99
2018-03-28T01:48:58.350Z,99.99
2018-03-28T01:49:58.317Z,99.99
2018-03-28T01:50:58.261Z,99.99
2018-03-28T01:51:58.218Z,99.99
2018-03-28T01:52:58.171Z,99.99
2018-03-28T01:53:58.138Z,99.99
2018-03-28T01:54:58.081Z,99.99
2018-03-28T01:55:58.037Z,99.99
2018-03-28T01:56:57.992Z,99.99
2018-03-28T01:57:57.946Z,99.99
2018-03-28T01:58:57.901Z,99.99
2018-03-28T01:59:57.854Z,99.99
2018-03-28T02:00:57.808Z,99.99
2018-03-28T02:01:57.779Z,99.99
2018-03-28T02:02:57.721Z,99.99
2018-03-28T02:03:57.675Z,99.99
2018-03-28T02:04:57.628Z,99.99
2018-03-28T02:05:57.586Z,99.99
2018-03-28T02:06:57.554Z,99.99
2018-03-28T02:07:57.492Z,99.99
2018-03-28T02:08:57.447Z,99.99
2018-03-28T02:09:57.407Z,99.99
2018-03-28T02:10:57.353Z,99.99
2018-03-28T02:11:57.311Z,99.99
2018-03-28T02:12:57.284Z,99.99
2018-03-28T02:13:57.253Z,99.99
2018-03-28T02:14:57.174Z,99.99
2018-03-28T02:15:57.130Z,99.99
2018-03-28T02:16:57.136Z,99.99
2018-03-28T02:17:57.039Z,99.99
2018-03-28T02:18:56.998Z,99.99
2018-03-28T02:19:56.947Z,99.99
2018-03-28T02:20:56.902Z,99.99
2018-03-28T02:21:56.860Z,99.99
2018-03-28T02:22:56.814Z,99.99
2018-03-28T02:23:56.767Z,99.99
2018-03-28T02:24:56.719Z,99.99
2018-03-28T02:25:56.675Z,99.99
2018-03-28T02:26:56.645Z,99.99
2018-03-28T02:27:56.583Z,99.99
2018-03-28T02:28:56.541Z,99.99
2018-03-28T02:29:56.497Z,99.99
2018-03-28T02:30:56.449Z,99.99
2018-03-28T02:31:56.404Z,99.99
2018-03-28T02:32:56.360Z,99.99
2018-03-28T02:33:56.314Z,99.99
2018-03-28T02:34:56.270Z,99.99
2018-03-28T02:35:56.225Z,99.99
2018-03-28T02:36:56.177Z,99.99
2018-03-28T02:37:56.139Z,99.99
2018-03-28T02:38:56.086Z,99.99
2018-03-28T02:39:56.043Z,99.99
2018-03-28T02:40:56.001Z,99.99
2018-03-28T02:41:55.953Z,99.99
2018-03-28T02:42:55.911Z,99.99
2018-03-28T02:43:55.866Z,99.99
2018-03-28T02:44:55.840Z,99.99
2018-03-28T02:45:55.773Z,99.99
2018-03-28T02:46:55.728Z,99.99
2018-03-28T02:47:55.682Z,99.99
2018-03-28T02:48:55.636Z,99.99
2018-03-28T02:49:55.589Z,99.99
2018-03-28T02:50:55.544Z,99.99
2018-03-28T02:51:55.509Z,99.99
2018-03-28T02:52:55.464Z,99.99
2018-03-28T02:53:55.423Z,99.99
2018-03-28T02:54:55.366Z,99.99
2018-03-28T02:55:55.320Z,99.99
2018-03-28T02:56:55.275Z,99.99
2018-03-28T02:57:55.229Z,99.99
2018-03-28T02:58:55.185Z,99.99
2018-03-28T02:59:55.139Z,99.99
2018-03-28T03:00:55.098Z,99.99
2018-03-28T03:01:55.048Z,99.99
2018-03-28T03:02:55.004Z,99.99
2018-03-28T03:03:54.957Z,99.99
2018-03-28T03:04:54.912Z,99.99
2018-03-28T03:05:54.868Z,99.99
2018-03-28T03:06:54.824Z,99.99
2018-03-28T03:07:54.776Z,99.99
2018-03-28T03:08:54.731Z,99.99
2018-03-28T03:09:54.688Z,99.99
2018-03-28T03:10:54.642Z,99.99
2018-03-28T03:11:54.597Z,99.99
2018-03-28T03:12:54.552Z,99.99
2018-03-28T03:13:54.509Z,99.99
2018-03-28T03:14:54.464Z,99.99
2018-03-28T03:15:54.416Z,99.99
2018-03-28T03:16:54.371Z,99.99
2018-03-28T03:17:54.333Z,99.99
2018-03-28T03:18:54.283Z,99.99
2018-03-28T03:19:54.238Z,99.99
2018-03-28T03:20:54.194Z,99.99
2018-03-28T03:21:54.146Z,99.99
2018-03-28T03:22:54.098Z,99.99
2018-03-28T03:23:54.057Z,99.99
2018-03-28T03:24:54.019Z,99.99
2018-03-28T03:25:53.966Z,99.99
2018-03-28T03:26:53.926Z,99.99
2018-03-28T03:27:53.876Z,99.99
2018-03-28T03:28:53.830Z,99.99
2018-03-28T03:29:53.789Z,99.99
2018-03-28T03:30:53.742Z,99.99
2018-03-28T03:31:53.694Z,99.99
2018-03-28T03:32:53.649Z,99.99
2018-03-28T03:33:53.603Z,99.99
2018-03-28T03:34:53.622Z,99.99
2018-03-28T03:35:53.516Z,99.99
2018-03-28T03:36:53.521Z,99.99
2018-03-28T03:37:53.425Z,99.99
2018-03-28T03:38:53.381Z,99.99
2018-03-28T03:39:53.334Z,99.99
2018-03-28T03:40:53.292Z,99.99
2018-03-28T03:41:53.244Z,99.99
2018-03-28T03:42:53.203Z,99.99
2018-03-28T03:43:53.163Z,99.99
2018-03-28T03:44:53.108Z,99.99
2018-03-28T03:45:53.071Z,99.99
2018-03-28T03:46:53.015Z,99.99
2018-03-28T03:47:52.975Z,99.99
2018-03-28T03:48:52.927Z,99.99
2018-03-28T03:49:52.882Z,99.99
2018-03-28T03:50:52.836Z,99.99
2018-03-28T03:51:52.792Z,99.99
2018-03-28T03:52:52.744Z,99.99
2018-03-28T03:53:52.703Z,99.99
2018-03-28T03:54:52.657Z,99.99
2018-03-28T03:55:52.611Z,99.99
2018-03-28T03:56:52.564Z,99.99
2018-03-28T03:57:52.521Z,99.99
2018-03-28T03:58:52.536Z,99.99
2018-03-28T03:59:52.431Z,99.99
2018-03-28T04:00:52.388Z,99.99
2018-03-28T04:01:52.340Z,99.99
2018-03-28T04:02:52.295Z,99.99
2018-03-28T04:03:52.253Z,99.99
2018-03-28T04:04:52.209Z,99.99
2018-03-28T04:05:52.164Z,99.99
2018-03-28T04:06:52.118Z,99.99
2018-03-28T04:07:52.070Z,99.99
2018-03-28T04:08:52.025Z,99.99
2018-03-28T04:09:51.984Z,99.99
2018-03-28T04:10:51.939Z,99.99
2018-03-28T04:11:51.889Z,99.99
2018-03-28T04:12:51.845Z,99.99
2018-03-28T04:13:51.800Z,99.99
2018-03-28T04:14:51.760Z,99.99
2018-03-28T04:15:51.709Z,99.99
2018-03-28T04:16:51.668Z,99.99
2018-03-28T04:17:51.638Z,99.99
2018-03-28T04:18:51.577Z,99.99
2018-03-28T04:19:51.533Z,99.99
2018-03-28T04:20:51.485Z,99.99
2018-03-28T04:21:51.438Z,99.99
2018-03-28T04:22:51.393Z,99.99
2018-03-28T04:23:51.349Z,99.99
2018-03-28T04:24:51.307Z,99.99
2018-03-28T04:25:51.260Z,99.99
2018-03-28T04:26:51.215Z,99.99
2018-03-28T04:27:51.169Z,99.99
2018-03-28T04:28:51.126Z,99.99
2018-03-28T04:29:51.080Z,99.99
2018-03-28T04:30:51.034Z,99.99
2018-03-28T04:31:50.994Z,99.99
2018-03-28T04:32:50.941Z,99.99
2018-03-28T04:33:50.905Z,99.99
2018-03-28T04:34:50.852Z,99.99
2018-03-28T04:35:50.809Z,99.99
2018-03-28T04:36:50.761Z,99.99
2018-03-28T04:37:50.724Z,99.99
2018-03-28T04:38:50.673Z,99.99
2018-03-28T04:39:50.627Z,99.99
2018-03-28T04:40:50.584Z,99.99
2018-03-28T04:41:50.539Z,99.99
2018-03-28T04:42:50.490Z,99.99
2018-03-28T04:43:50.453Z,99.99
2018-03-28T04:44:50.401Z,99.99
2018-03-28T04:45:50.355Z,99.99
2018-03-28T04:46:50.312Z,99.99
2018-03-28T04:47:50.267Z,99.99
2018-03-28T04:48:50.226Z,99.99
2018-03-28T04:49:50.180Z,99.99
2018-03-28T04:50:50.129Z,99.99
2018-03-28T04:51:50.086Z,99.99
2018-03-28T04:52:50.045Z,99.99
2018-03-28T04:53:49.997Z,99.99
2018-03-28T04:54:49.953Z,99.99
2018-03-28T04:55:49.954Z,99.99
2018-03-28T04:56:49.868Z,99.99
2018-03-28T04:57:49.816Z,99.99
2018-03-28T04:58:49.768Z,99.99
2018-03-28T04:59:49.726Z,99.99
2018-03-28T05:00:49.680Z,99.99
2018-03-28T05:01:49.637Z,99.99
2018-03-28T05:02:49.587Z,99.99
2018-03-28T05:03:49.545Z,99.99
2018-03-28T05:04:49.505Z,99.99
2018-03-28T05:05:49.454Z,99.99
2018-03-28T05:06:49.421Z,99.99
2018-03-28T05:07:49.366Z,99.99
2018-03-28T05:08:49.319Z,99.99
2018-03-28T05:09:49.272Z,99.99
2018-03-28T05:10:49.226Z,99.99
2018-03-28T05:11:49.184Z,99.99
2018-03-28T05:12:49.142Z,99.99
2018-03-28T05:13:49.102Z,99.99
2018-03-28T05:14:49.051Z,99.99
2018-03-28T05:15:49.012Z,99.99
2018-03-28T05:16:48.959Z,99.99
2018-03-28T05:17:48.913Z,99.99
2018-03-28T05:18:48.870Z,99.99
2018-03-28T05:19:48.823Z,99.99
2018-03-28T05:20:48.780Z,99.99
2018-03-28T05:21:48.740Z,99.99
2018-03-28T05:22:48.712Z,99.99
2018-03-28T05:23:48.651Z,99.99
2018-03-28T05:24:48.597Z,99.99
2018-03-28T05:25:48.552Z,99.99
2018-03-28T05:26:48.509Z,99.99
2018-03-28T05:27:48.458Z,99.99
2018-03-28T05:28:48.412Z,99.99
2018-03-28T05:29:48.376Z,99.99
2018-03-28T05:30:48.335Z,99.99
2018-03-28T05:31:48.277Z,99.99
2018-03-28T05:32:48.242Z,99.99
2018-03-28T05:33:48.185Z,99.99
2018-03-28T05:34:48.140Z,99.99
2018-03-28T05:35:48.104Z,99.99
2018-03-28T05:36:48.050Z,99.99
2018-03-28T05:37:48.004Z,99.99
2018-03-28T05:38:47.963Z,99.99
2018-03-28T05:39:47.927Z,99.99
2018-03-28T05:40:47.870Z,99.99
2018-03-28T05:41:47.826Z,99.99
2018-03-28T05:42:47.802Z,99.99
2018-03-28T05:43:47.736Z,99.99
2018-03-28T05:44:47.692Z,99.99
2018-03-28T05:45:47.650Z,99.99
2018-03-28T05:46:47.597Z,99.99
2018-03-28T05:47:47.550Z,99.99
2018-03-28T05:48:47.509Z,99.99
2018-03-28T05:49:47.461Z,99.99
2018-03-28T05:50:47.416Z,99.99
2018-03-28T05:51:47.373Z,99.99
2018-03-28T05:52:47.326Z,99.99
2018-03-28T05:53:47.279Z,99.99
2018-03-28T05:54:47.232Z,99.99
2018-03-28T05:55:47.237Z,99.99
2018-03-28T05:56:47.142Z,99.99
2018-03-28T05:57:47.096Z,99.99
2018-03-28T05:58:47.053Z,99.99
2018-03-28T05:59:47.007Z,99.99
2018-03-28T06:00:46.968Z,99.99
2018-03-28T06:01:46.913Z,99.99
2018-03-28T06:02:46.872Z,99.99
2018-03-28T06:03:46.831Z,99.99
2018-03-28T06:04:46.778Z,99.99
2018-03-28T06:05:46.748Z,99.99
2018-03-28T06:06:46.689Z,99.99
2018-03-28T06:07:46.647Z,99.99
2018-03-28T06:08:46.598Z,99.99
2018-03-28T06:09:46.552Z,99.99
2018-03-28T06:10:46.505Z,99.99
2018-03-28T06:11:46.460Z,99.99
2018-03-28T06:12:46.418Z,99.99
2018-03-28T06:13:46.370Z,99.99
2018-03-28T06:14:46.328Z,99.99
2018-03-28T06:15:46.280Z,99.99
2018-03-28T06:16:46.237Z,99.99
2018-03-28T06:17:46.193Z,99.99
2018-03-28T06:18:46.148Z,99.99
2018-03-28T06:19:46.098Z,99.99
2018-03-28T06:20:46.056Z,99.99
2018-03-28T06:21:46.010Z,99.99
2018-03-28T06:22:45.965Z,99.99
2018-03-28T06:23:45.925Z,99.99
2018-03-28T06:24:45.878Z,99.99
2018-03-28T06:25:45.830Z,99.99
2018-03-28T06:26:45.795Z,99.99
2018-03-28T06:27:45.747Z,99.99
2018-03-28T06:28:45.692Z,99.99
2018-03-28T06:29:45.645Z,99.99
2018-03-28T06:30:45.608Z,99.99
2018-03-28T06:31:45.556Z,99.99
2018-03-28T06:32:45.509Z,99.99
2018-03-28T06:33:45.472Z,99.99
2018-03-28T06:34:45.419Z,99.99
2018-03-28T06:35:45.375Z,99.99
2018-03-28T06:36:45.330Z,99.99
2018-03-28T06:37:45.282Z,99.99
2018-03-28T06:38:45.238Z,99.99
2018-03-28T06:39:45.197Z,99.99
2018-03-28T06:40:45.147Z,99.99
2018-03-28T06:41:45.153Z,99.99
2018-03-28T06:42:45.061Z,99.99
2018-03-28T06:43:45.015Z,99.99
2018-03-28T06:44:44.965Z,99.99
2018-03-28T06:45:44.919Z,99.99
2018-03-28T06:46:44.874Z,99.99
2018-03-28T06:47:44.831Z,99.99
2018-03-28T06:48:44.784Z,99.99
2018-03-28T06:49:44.739Z,99.99
2018-03-28T06:50:44.699Z,99.99
2018-03-28T06:51:44.650Z,99.99
2018-03-28T06:52:44.604Z,99.99
2018-03-28T06:53:44.561Z,99.99
2018-03-28T06:54:44.513Z,99.99
2018-03-28T06:55:44.473Z,99.99
2018-03-28T06:56:44.423Z,99.99
2018-03-28T06:57:44.379Z,99.99
2018-03-28T06:58:44.331Z,99.99
2018-03-28T06:59:44.302Z,99.99
2018-03-28T07:00:44.244Z,99.99
2018-03-28T07:01:44.197Z,99.99
2018-03-28T07:02:44.154Z,99.99
2018-03-28T07:03:44.108Z,99.99
2018-03-28T07:04:44.062Z,99.99
2018-03-28T07:05:44.017Z,99.99
2018-03-28T07:06:43.971Z,99.99
2018-03-28T07:07:43.935Z,99.99
2018-03-28T07:08:43.885Z,99.99
2018-03-28T07:09:43.844Z,99.99
2018-03-28T07:10:43.790Z,99.99
2018-03-28T07:11:43.749Z,99.99
2018-03-28T07:12:43.706Z,99.99
2018-03-28T07:13:43.655Z,99.99
2018-03-28T07:14:43.613Z,99.99
2018-03-28T07:15:43.565Z,99.99
2018-03-28T07:16:43.519Z,99.99
2018-03-28T07:17:43.475Z,99.99
2018-03-28T07:18:43.430Z,99.99
2018-03-28T07:19:43.385Z,99.99
2018-03-28T07:20:43.390Z,99.99
2018-03-28T07:21:43.302Z,99.99
2018-03-28T07:22:43.252Z,99.99
2018-03-28T07:23:43.205Z,99.99
2018-03-28T07:24:43.159Z,99.99
2018-03-28T07:25:43.114Z,99.99
2018-03-28T07:26:43.069Z,99.99
2018-03-28T07:27:43.029Z,99.99
2018-03-28T07:28:42.979Z,99.99
2018-03-28T07:29:42.936Z,99.99
2018-03-28T07:30:42.890Z,99.99
2018-03-28T07:31:42.845Z,99.99
2018-03-28T07:32:42.802Z,99.99
2018-03-28T07:33:42.761Z,99.99
2018-03-28T07:34:42.714Z,99.99
2018-03-28T07:35:42.666Z,99.99
2018-03-28T07:36:42.621Z,99.99
2018-03-28T07:37:42.577Z,99.99
2018-03-28T07:38:42.532Z,99.99
2018-03-28T07:39:42.489Z,99.99
2018-03-28T07:40:42.447Z,99.99
2018-03-28T07:41:42.401Z,99.99
2018-03-28T07:42:42.354Z,99.99
2018-03-28T07:43:42.309Z,99.99
2018-03-28T07:44:42.265Z,99.99
2018-03-28T07:45:42.221Z,99.99
2018-03-28T07:46:42.181Z,99.55
2018-03-28T07:47:42.134Z,99.36
2018-03-28T07:48:42.088Z,99.27
2018-03-28T07:49:42.043Z,99.17
2018-03-28T07:50:41.996Z,99.17
2018-03-28T07:51:41.952Z,99.27
2018-03-28T07:52:41.906Z,98.88
2018-03-28T07:53:41.862Z,99.17
2018-03-28T07:54:41.820Z,99.17
2018-03-28T07:55:41.772Z,99.27
2018-03-28T07:56:41.728Z,99.36
2018-03-28T07:57:41.686Z,98.88
2018-03-28T07:58:41.640Z,99.27
2018-03-28T07:59:41.594Z,98.22
2018-03-28T08:00:41.550Z,98.41
2018-03-28T08:01:41.507Z,98.98
2018-03-28T08:02:41.461Z,98.98
2018-03-28T08:03:41.423Z,99.27
2018-03-28T08:04:41.371Z,99.08
2018-03-28T08:05:41.327Z,98.88
2018-03-28T08:06:41.281Z,98.98
2018-03-28T08:07:41.238Z,98.41
2018-03-28T08:08:41.198Z,98.50
2018-03-28T08:09:41.150Z,98.41
2018-03-28T08:10:41.106Z,98.41
2018-03-28T08:11:41.059Z,98.69
2018-03-28T08:12:41.074Z,98.74
2018-03-28T08:13:40.977Z,98.69
2018-03-28T08:14:40.926Z,98.27
2018-03-28T08:15:40.888Z,99.22
2018-03-28T08:16:40.837Z,99.41
2018-03-28T08:17:40.791Z,98.55
2018-03-28T08:18:40.747Z,98.55
2018-03-28T08:19:40.703Z,97.60
2018-03-28T08:20:40.661Z,96.75
2018-03-28T08:21:40.614Z,97.60
2018-03-28T08:22:40.574Z,96.84
2018-03-28T08:23:40.529Z,96.46
2018-03-28T08:24:40.482Z,95.89
2018-03-28T08:25:40.440Z,95.41
2018-03-28T08:26:40.402Z,95.70
2018-03-28T08:27:40.347Z,95.41
2018-03-28T08:28:40.308Z,94.84
2018-03-28T08:29:40.259Z,93.60
2018-03-28T08:30:40.218Z,93.22
2018-03-28T08:31:40.177Z,94.37
2018-03-28T08:32:40.129Z,93.13
2018-03-28T08:33:40.082Z,93.03
2018-03-28T08:34:40.040Z,93.13
2018-03-28T08:35:39.995Z,92.55
2018-03-28T08:36:39.951Z,92.27
2018-03-28T08:37:39.911Z,93.03
2018-03-28T08:38:39.859Z,93.32
2018-03-28T08:39:39.860Z,93.41
2018-03-28T08:40:39.776Z,93.22
2018-03-28T08:41:39.729Z,94.56
2018-03-28T08:42:39.686Z,94.08
2018-03-28T08:43:39.640Z,93.22
2018-03-28T08:44:39.596Z,93.22
2018-03-28T08:45:39.554Z,93.37
2018-03-28T08:46:39.510Z,93.60
2018-03-28T08:47:39.461Z,95.17
2018-03-28T08:48:39.420Z,94.84
2018-03-28T08:49:39.375Z,94.46
2018-03-28T08:50:39.337Z,94.27
2018-03-28T08:51:39.287Z,94.22
2018-03-28T08:52:39.242Z,93.79
2018-03-28T08:53:39.199Z,94.03
2018-03-28T08:54:39.155Z,93.37
2018-03-28T08:55:39.110Z,92.60
2018-03-28T08:56:39.069Z,92.32
2018-03-28T08:57:39.022Z,92.46
2018-03-28T08:58:38.978Z,92.08
2018-03-28T08:59:38.935Z,92.41
2018-03-28T09:00:38.892Z,92.41
2018-03-28T09:01:38.849Z,92.13
2018-03-28T09:02:38.801Z,92.32
2018-03-28T09:03:38.763Z,91.94
2018-03-28T09:04:38.715Z,91.46
2018-03-28T09:05:38.673Z,91.84
2018-03-28T09:06:38.625Z,90.98
2018-03-28T09:07:38.581Z,90.98
2018-03-28T09:08:38.537Z,90.98
2018-03-28T09:09:38.493Z,90.79
2018-03-28T09:10:38.446Z,91.65
2018-03-28T09:11:38.436Z,91.36
2018-03-28T09:12:38.368Z,91.84
2018-03-28T09:13:38.321Z,90.70
2018-03-28T09:14:38.274Z,90.89
2018-03-28T09:15:38.231Z,90.89
2018-03-28T09:16:38.189Z,90.70
2018-03-28T09:17:38.147Z,90.79
2018-03-28T09:18:38.097Z,91.03
2018-03-28T09:19:38.053Z,90.84
2018-03-28T09:20:38.009Z,91.08
2018-03-28T09:21:37.964Z,90.60
2018-03-28T09:22:37.922Z,91.60
2018-03-28T09:23:37.880Z,91.50
2018-03-28T09:24:37.833Z,90.74
2018-03-28T09:25:37.787Z,91.31
2018-03-28T09:26:37.745Z,90.36
2018-03-28T09:27:37.702Z,90.74
2018-03-28T09:28:37.657Z,91.03
2018-03-28T09:29:37.615Z,91.22
2018-03-28T09:30:37.570Z,90.55
2018-03-28T09:31:37.527Z,89.22
2018-03-28T09:32:37.484Z,89.50
2018-03-28T09:33:37.442Z,88.74
2018-03-28T09:34:37.399Z,89.03
2018-03-28T09:35:37.350Z,88.26
2018-03-28T09:36:37.306Z,88.64
2018-03-28T09:37:37.264Z,88.74
2018-03-28T09:38:37.220Z,88.36
2018-03-28T09:39:37.201Z,87.98
2018-03-28T09:40:37.134Z,88.93
2018-03-28T09:41:37.096Z,89.12
2018-03-28T09:42:37.046Z,88.07
2018-03-28T09:43:39.059Z,87.98
2018-03-28T09:44:36.960Z,87.50
2018-03-28T09:45:36.916Z,87.21
2018-03-28T09:46:36.875Z,88.26
2018-03-28T09:47:36.828Z,88.40
2018-03-28T09:48:36.785Z,87.12
2018-03-28T09:49:36.751Z,87.45
2018-03-28T09:50:36.699Z,87.83
2018-03-28T09:51:36.652Z,87.35
2018-03-28T09:52:36.612Z,87.45
2018-03-28T09:53:36.568Z,85.93
2018-03-28T09:54:36.522Z,85.83
2018-03-28T09:55:36.478Z,85.64
2018-03-28T09:56:36.437Z,85.06
2018-03-28T09:57:36.395Z,84.97
2018-03-28T09:58:36.349Z,84.97
2018-03-28T09:59:36.305Z,84.97
2018-03-28T10:00:36.262Z,84.97
2018-03-28T10:01:36.217Z,84.40
2018-03-28T10:02:36.175Z,84.40
2018-03-28T10:03:36.132Z,84.97
2018-03-28T10:04:36.093Z,84.69
2018-03-28T10:05:36.047Z,84.30
2018-03-28T10:06:36.003Z,84.40
2018-03-28T10:07:35.958Z,84.88
2018-03-28T10:08:35.915Z,84.69
2018-03-28T10:09:35.877Z,85.16
2018-03-28T10:10:35.829Z,85.25
2018-03-28T10:11:35.784Z,84.78
2018-03-28T10:12:35.742Z,84.20
2018-03-28T10:13:35.697Z,84.59
2018-03-28T10:14:35.654Z,85.06
2018-03-28T10:15:35.611Z,85.16
2018-03-28T10:16:35.572Z,86.02
2018-03-28T10:17:35.522Z,85.25
2018-03-28T10:18:35.487Z,85.83
2018-03-28T10:19:35.437Z,85.73
2018-03-28T10:20:35.394Z,85.88
2018-03-28T10:21:35.350Z,85.60
2018-03-28T10:22:35.306Z,85.97
2018-03-28T10:23:35.265Z,86.55
2018-03-28T10:24:35.223Z,86.55
2018-03-28T10:25:35.186Z,86.55
2018-03-28T10:26:35.136Z,86.26
2018-03-28T10:27:35.092Z,86.45
2018-03-28T10:28:35.056Z,86.74
2018-03-28T10:29:35.015Z,87.12
2018-03-28T10:30:34.963Z,86.93
2018-03-28T10:31:34.916Z,87.40
2018-03-28T10:32:34.872Z,87.98
2018-03-28T10:33:34.838Z,88.74
2018-03-28T10:34:34.789Z,88.55
2018-03-28T10:35:34.743Z,89.31
2018-03-28T10:36:34.700Z,89.98
2018-03-28T10:37:34.658Z,89.89
2018-03-28T10:38:34.617Z,90.17
2018-03-28T10:39:34.567Z,90.93
2018-03-28T10:40:34.524Z,91.03
2018-03-28T10:41:34.482Z,89.79
2018-03-28T10:42:34.436Z,89.89
2018-03-28T10:43:34.389Z,89.84
2018-03-28T10:44:39.256Z,90.79
2018-03-28T10:45:34.306Z,90.98
2018-03-28T10:46:34.260Z,90.84
2018-03-28T10:47:34.216Z,91.27
2018-03-28T10:48:34.248Z,92.69
2018-03-28T10:49:34.133Z,92.98
2018-03-28T10:50:34.087Z,93.55
2018-03-28T10:51:34.042Z,94.32
2018-03-28T10:52:34.002Z,93.74
2018-03-28T10:53:33.955Z,92.60
2018-03-28T10:54:33.916Z,91.94
2018-03-28T10:55:33.870Z,91.46
2018-03-28T10:56:33.824Z,91.50
2018-03-28T10:57:33.779Z,92.08
2018-03-28T10:58:33.733Z,92.98
2018-03-28T10:59:33.692Z,91.74
2018-03-28T11:00:33.649Z,90.79
2018-03-28T11:01:33.610Z,90.70
2018-03-28T11:02:33.566Z,91.17
2018-03-28T11:03:33.517Z,91.50
2018-03-28T11:04:33.536Z,90.98
2018-03-28T11:05:33.430Z,90.70
2018-03-28T11:06:33.385Z,90.79
2018-03-28T11:07:33.340Z,90.36
2018-03-28T11:08:33.298Z,91.03
2018-03-28T11:09:33.255Z,91.03
2018-03-28T11:10:33.211Z,91.69
2018-03-28T11:11:33.164Z,90.60
2018-03-28T11:12:33.120Z,90.45
2018-03-28T11:13:33.077Z,90.31
2018-03-28T11:14:33.033Z,90.41
2018-03-28T11:15:32.990Z,91.03
2018-03-28T11:16:32.951Z,91.03
2018-03-28T11:17:32.905Z,91.13
2018-03-28T11:18:32.872Z,91.31
2018-03-28T11:19:32.815Z,91.03
2018-03-28T11:20:32.801Z,90.45
2018-03-28T11:21:32.729Z,91.03
2018-03-28T11:22:32.685Z,91.03
2018-03-28T11:23:32.639Z,91.03
2018-03-28T11:24:32.597Z,91.50
2018-03-28T11:25:32.554Z,92.08
2018-03-28T11:26:32.507Z,91.41
2018-03-28T11:27:32.463Z,92.27
2018-03-28T11:28:32.420Z,91.69
2018-03-28T11:29:32.384Z,92.65
2018-03-28T11:30:32.332Z,93.22
2018-03-28T11:31:32.289Z,92.46
2018-03-28T11:32:32.247Z,92.36
2018-03-28T11:33:32.203Z,93.70
2018-03-28T11:34:32.161Z,94.37
2018-03-28T11:35:32.114Z,94.17
2018-03-28T11:36:32.071Z,93.51
2018-03-28T11:37:32.026Z,92.36
2018-03-28T11:38:31.985Z,92.36
2018-03-28T11:39:31.939Z,93.22
2018-03-28T11:40:31.894Z,93.41
2018-03-28T11:41:31.868Z,94.27
2018-03-28T11:42:31.806Z,94.56
2018-03-28T11:43:31.765Z,93.60
2018-03-28T11:44:31.720Z,94.17
2018-03-28T11:45:31.680Z,93.60
2018-03-28T11:46:31.630Z,93.51
2018-03-28T11:47:31.589Z,93.03
2018-03-28T11:48:31.546Z,93.32
2018-03-28T11:49:31.503Z,93.41
2018-03-28T11:50:31.460Z,93.88
2018-03-28T11:51:31.417Z,93.60
2018-03-28T11:52:31.370Z,93.22
2018-03-28T11:53:31.325Z,93.12
2018-03-28T11:54:31.284Z,93.79
2018-03-28T11:55:31.238Z,95.12
2018-03-28T11:56:31.195Z,94.37
2018-03-28T11:57:31.150Z,93.88
2018-03-28T11:58:31.110Z,93.32
2018-03-28T11:59:31.062Z,93.03
2018-03-28T12:00:31.019Z,92.17
2018-03-28T12:01:30.974Z,91.41
2018-03-28T12:02:30.932Z,91.50
2018-03-28T12:03:30.913Z,91.50
2018-03-28T12:04:30.852Z,91.98
2018-03-28T12:05:30.799Z,93.22
2018-03-28T12:06:30.756Z,92.27
2018-03-28T12:07:30.716Z,91.79
2018-03-28T12:08:30.677Z,93.32
2018-03-28T12:09:30.628Z,94.17
2018-03-28T12:10:30.581Z,94.93
2018-03-28T12:11:30.538Z,95.61
2018-03-28T12:12:30.494Z,94.22
2018-03-28T12:13:30.454Z,94.56
2018-03-28T12:14:30.408Z,94.37
2018-03-28T12:15:30.363Z,94.84
2018-03-28T12:16:30.321Z,94.65
2018-03-28T12:17:30.279Z,95.32
2018-03-28T12:18:30.239Z,95.61
2018-03-28T12:19:30.193Z,96.60
2018-03-28T12:20:30.146Z,94.89
2018-03-28T12:21:30.102Z,94.74
2018-03-28T12:22:30.058Z,95.84
2018-03-28T12:23:30.019Z,95.75
2018-03-28T12:24:29.969Z,95.84
2018-03-28T12:25:29.927Z,95.46
2018-03-28T12:26:29.887Z,96.41
2018-03-28T12:27:29.840Z,96.70
2018-03-28T12:28:29.800Z,96.22
2018-03-28T12:29:29.757Z,96.70
2018-03-28T12:30:29.716Z,97.17
2018-03-28T12:31:29.661Z,97.36
2018-03-28T12:32:29.619Z,97.08
2018-03-28T12:33:29.574Z,96.51
2018-03-28T12:34:29.534Z,96.51
2018-03-28T12:35:29.492Z,96.41
2018-03-28T12:36:29.445Z,96.98
2018-03-28T12:37:29.401Z,96.22
2018-03-28T12:38:29.356Z,95.46
2018-03-28T12:39:29.321Z,95.56
2018-03-28T12:40:29.273Z,96.70
2018-03-28T12:41:29.227Z,96.22
2018-03-28T12:42:29.183Z,96.51
2018-03-28T12:43:29.135Z,95.75
2018-03-28T12:44:29.093Z,95.46
2018-03-28T12:45:29.074Z,95.56
2018-03-28T12:46:29.005Z,96.41
2018-03-28T12:47:28.966Z,96.22
2018-03-28T12:48:28.939Z,96.80
2018-03-28T12:49:28.874Z,96.89
2018-03-28T12:50:28.836Z,97.65
2018-03-28T12:51:28.785Z,97.75